createdAt,value
2023-01-11T00:00:17.529Z,8.00
2023-01-11T00:03:05.230Z,11.68
2023-01-11T00:08:36.532Z,17.38
2023-01-11T00:11:22.295Z,15.98
2023-01-11T00:14:07.706Z,14.10
2023-01-11T00:16:53.013Z,16.17
2023-01-11T00:19:38.615Z,8.82
2023-01-11T00:22:26.486Z,17.27
2023-01-11T00:25:11.818Z,8.40
2023-01-11T00:27:57.423Z,10.68
2023-01-11T00:30:43.038Z,26.92
2023-01-11T00:33:28.421Z,21.58
2023-01-11T00:36:13.801Z,19.92
2023-01-11T00:38:59.091Z,9.18
2023-01-11T00:42:03.040Z,11.32
2023-01-11T00:45:06.885Z,14.93
2023-01-11T00:47:58.348Z,6.78
2023-01-11T00:50:44.005Z,11.80
2023-01-11T00:53:29.461Z,17.80
2023-01-11T00:56:14.709Z,15.30
2023-01-11T00:59:00.192Z,7.97
2023-01-11T01:01:45.488Z,5.45
2023-01-11T01:04:30.890Z,5.80
2023-01-11T01:07:16.166Z,11.18
2023-01-11T01:10:01.459Z,6.68
2023-01-11T01:13:05.800Z,7.88
2023-01-11T01:15:57.787Z,12.23
2023-01-11T01:18:43.226Z,12.80
2023-01-11T01:21:28.603Z,11.32
2023-01-11T01:24:14.245Z,16.13
2023-01-11T01:26:59.649Z,15.80
2023-01-11T01:29:45.043Z,10.30
2023-01-11T01:32:30.464Z,12.23
2023-01-11T01:35:15.754Z,9.43
2023-01-11T01:38:01.063Z,10.32
2023-01-11T01:40:48.331Z,15.82
2023-01-11T01:43:52.497Z,18.20
2023-01-11T01:46:38.019Z,17.48
2023-01-11T01:49:23.733Z,8.95
2023-01-11T01:52:10.388Z,8.07
2023-01-11T01:55:01.084Z,13.40
2023-01-11T01:57:46.597Z,15.13
2023-01-11T02:00:33.135Z,9.43
2023-01-11T02:03:23.279Z,5.63
2023-01-11T02:06:11.565Z,12.85
2023-01-11T02:09:02.285Z,7.63
2023-01-11T02:11:48.723Z,4.25
2023-01-11T02:14:37.035Z,11.75
2023-01-11T02:17:22.557Z,7.30
2023-01-11T02:20:44.814Z,4.82
2023-01-11T02:23:58.279Z,10.32
2023-01-11T02:27:11.775Z,6.47
2023-01-11T02:30:10.380Z,4.55
2023-01-11T02:33:21.135Z,5.78
2023-01-11T02:36:28.348Z,9.27
2023-01-11T02:39:34.444Z,8.20
2023-01-11T02:42:50.942Z,8.02
2023-01-11T02:46:06.828Z,5.57
2023-01-11T02:49:04.804Z,5.95
2023-01-11T02:52:07.849Z,9.40
2023-01-11T02:54:57.745Z,4.45
2023-01-11T02:57:44.879Z,9.25
2023-01-11T03:03:30.565Z,3.80
2023-01-11T03:06:18.438Z,3.83
2023-01-11T03:09:19.068Z,11.73
2023-01-11T03:12:26.245Z,8.93
2023-01-11T03:15:41.110Z,9.48
2023-01-11T03:18:39.479Z,11.30
2023-01-11T03:21:54.135Z,35.08
2023-01-11T03:24:47.865Z,6.38
2023-01-11T03:27:47.907Z,4.25
2023-01-11T03:30:55.357Z,5.90
2023-01-11T03:34:10.354Z,12.57
2023-01-11T03:37:03.214Z,2.22
2023-01-11T03:40:18.157Z,8.80
2023-01-11T03:43:12.497Z,3.45
2023-01-11T03:46:07.972Z,3.20
2023-01-11T03:49:01.282Z,4.07
2023-01-11T03:51:48.233Z,4.72
2023-01-11T03:54:33.977Z,6.90
2023-01-11T03:57:28.304Z,1.48
2023-01-11T04:00:14.203Z,2.55
2023-01-11T04:03:00.771Z,2.83
2023-01-11T04:05:51.836Z,1.25
2023-01-11T04:08:37.084Z,0.65
2023-01-11T04:11:22.672Z,1.42
2023-01-11T04:14:08.161Z,0.65
2023-01-11T04:16:53.809Z,0.40
2023-01-11T04:19:39.094Z,0.70
2023-01-11T04:22:24.357Z,0.80
2023-01-11T04:25:10.095Z,0.50
2023-01-11T04:27:55.837Z,8.75
2023-01-11T04:30:41.266Z,5.68
2023-01-11T04:33:26.567Z,1.52
2023-01-11T04:36:13.939Z,1.38
2023-01-11T04:38:59.732Z,1.65
2023-01-11T04:42:03.896Z,1.40
2023-01-11T04:44:50.514Z,0.52
2023-01-11T04:47:36.142Z,2.03
2023-01-11T04:50:21.611Z,1.27
2023-01-11T04:53:06.820Z,4.65
2023-01-11T04:55:53.653Z,0.73
2023-01-11T04:58:39.045Z,4.45
2023-01-11T05:01:24.518Z,2.95
2023-01-11T05:04:12.028Z,1.95
2023-01-11T05:06:58.951Z,0.70
2023-01-11T05:09:44.281Z,0.90
2023-01-11T05:12:29.544Z,1.15
2023-01-11T05:15:15.051Z,1.30
2023-01-11T05:18:00.381Z,0.80
2023-01-11T05:20:49.169Z,1.25
2023-01-11T05:23:36.425Z,2.83
2023-01-11T05:26:24.392Z,0.50
2023-01-11T05:31:56.563Z,0.30
2023-01-11T05:34:41.869Z,0.45
2023-01-11T05:37:27.162Z,0.63
2023-01-11T05:40:12.789Z,0.70
2023-01-11T05:42:58.498Z,1.92
2023-01-11T05:45:43.989Z,0.40
2023-01-11T05:48:29.449Z,1.05
2023-01-11T05:51:14.733Z,0.60
2023-01-11T05:54:01.281Z,0.47
2023-01-11T05:56:46.522Z,0.65
2023-01-11T05:59:32.288Z,0.70
2023-01-11T06:02:18.127Z,0.70
2023-01-11T06:05:05.153Z,0.40
2023-01-11T06:07:50.754Z,0.63
2023-01-11T06:10:36.443Z,0.70
2023-01-11T06:13:26.741Z,1.33
2023-01-11T06:16:18.262Z,0.50
2023-01-11T06:19:04.028Z,0.98
2023-01-11T06:21:49.633Z,0.57
2023-01-11T06:24:35.206Z,0.50
2023-01-11T06:27:20.551Z,0.73
2023-01-11T06:30:06.572Z,0.40
2023-01-11T06:32:53.424Z,0.68
2023-01-11T06:35:40.765Z,1.00
2023-01-11T06:38:26.682Z,0.52
2023-01-11T06:41:13.262Z,0.50
2023-01-11T06:43:58.927Z,0.30
2023-01-11T06:46:44.171Z,1.08
2023-01-11T06:49:31.578Z,2.75
2023-01-11T06:52:16.946Z,0.57
2023-01-11T06:55:02.956Z,0.70
2023-01-11T06:57:48.688Z,0.40
2023-01-11T07:00:34.602Z,0.40
2023-01-11T07:03:20.774Z,0.75
2023-01-11T07:06:06.493Z,0.50
2023-01-11T07:08:51.778Z,0.82
2023-01-11T07:11:39.180Z,0.60
2023-01-11T07:14:25.218Z,0.80
2023-01-11T07:17:10.548Z,0.75
2023-01-11T07:19:55.895Z,0.68
2023-01-11T07:22:41.325Z,4.70
2023-01-11T07:25:30.356Z,3.53
2023-01-11T07:28:15.950Z,0.32
2023-01-11T07:31:01.655Z,0.50
2023-01-11T07:33:46.974Z,1.25
2023-01-11T07:36:36.086Z,1.23
2023-01-11T07:39:26.844Z,0.77
2023-01-11T07:42:36.160Z,0.75
2023-01-11T07:45:21.399Z,1.08
2023-01-11T07:48:10.093Z,1.05
2023-01-11T07:50:55.652Z,0.60
2023-01-11T07:53:41.008Z,0.40
2023-01-11T07:56:26.295Z,0.63
2023-01-11T07:59:11.812Z,5.90
2023-01-11T08:01:57.235Z,2.60
2023-01-11T08:04:42.577Z,2.35
2023-01-11T08:07:27.978Z,1.30
2023-01-11T08:10:13.793Z,4.80
2023-01-11T08:13:18.258Z,1.73
2023-01-11T08:16:03.813Z,0.70
2023-01-11T08:18:53.282Z,0.90
2023-01-11T08:21:38.984Z,2.13
2023-01-11T08:24:24.291Z,0.63
2023-01-11T08:27:10.125Z,0.40
2023-01-11T08:29:55.378Z,0.40
2023-01-11T08:32:40.635Z,1.05
2023-01-11T08:35:26.149Z,1.33
2023-01-11T08:38:11.391Z,0.77
2023-01-11T08:40:56.708Z,1.00
2023-01-11T08:43:42.384Z,1.88
2023-01-11T08:46:27.816Z,5.25
2023-01-11T08:49:13.219Z,4.38
2023-01-11T08:51:58.380Z,3.95
2023-01-11T08:54:44.112Z,0.60
2023-01-11T08:57:29.602Z,0.40
2023-01-11T09:00:15.603Z,0.35
2023-01-11T09:03:01.483Z,0.85
2023-01-11T09:05:46.948Z,0.70
2023-01-11T09:08:32.275Z,0.55
2023-01-11T09:11:36.575Z,0.90
2023-01-11T09:14:24.578Z,0.57
2023-01-11T09:17:10.435Z,1.25
2023-01-11T09:19:56.138Z,0.68
2023-01-11T09:22:41.595Z,0.50
2023-01-11T09:25:27.094Z,1.50
2023-01-11T09:28:12.482Z,0.90
2023-01-11T09:30:57.839Z,0.77
2023-01-11T09:33:43.178Z,0.52
2023-01-11T09:36:29.085Z,1.73
2023-01-11T09:39:18.766Z,0.43
2023-01-11T09:42:16.573Z,0.77
2023-01-11T09:45:07.687Z,0.70
2023-01-11T09:48:28.586Z,0.50
2023-01-11T09:51:19.252Z,0.63
2023-01-11T09:54:10.155Z,0.85
2023-01-11T09:57:31.322Z,0.80
2023-01-11T10:00:33.217Z,0.68
2023-01-11T10:03:37.178Z,0.63
2023-01-11T10:07:01.023Z,1.30
2023-01-11T10:18:41.543Z,0.40
2023-01-11T10:20:01.397Z,0.80
2023-01-11T10:22:49.989Z,0.32
2023-01-11T10:25:46.533Z,1.00
2023-01-11T10:28:43.281Z,1.50
2023-01-11T10:31:48.127Z,0.70
2023-01-11T10:35:00.813Z,0.65
2023-01-11T10:38:04.105Z,0.93
2023-01-11T10:41:04.694Z,0.82
2023-01-11T10:44:02.880Z,0.88
2023-01-11T10:46:53.943Z,0.75
2023-01-11T10:49:52.183Z,0.63
2023-01-11T10:52:48.020Z,1.15
2023-01-11T10:55:44.652Z,1.13
2023-01-11T10:59:05.045Z,1.10
2023-01-11T11:02:04.569Z,1.25
2023-01-11T11:05:08.131Z,0.63
2023-01-11T11:08:06.415Z,0.80
2023-01-11T11:11:03.402Z,0.50
2023-01-11T11:14:01.114Z,1.10
2023-01-11T11:17:11.408Z,0.63
2023-01-11T11:19:57.495Z,0.60
2023-01-11T11:22:45.078Z,0.63
2023-01-11T11:25:37.666Z,0.77
2023-01-11T11:28:23.363Z,0.60
2023-01-11T11:31:09.777Z,0.95
2023-01-11T11:33:55.094Z,5.88
2023-01-11T11:36:44.768Z,1.05
2023-01-11T11:39:31.938Z,0.73
2023-01-11T11:42:18.590Z,0.70
2023-01-11T11:45:15.676Z,0.93
2023-01-11T11:48:04.949Z,0.50
2023-01-11T11:50:52.950Z,3.30
2023-01-11T11:53:56.224Z,0.70
2023-01-11T11:56:41.944Z,0.50
2023-01-11T11:59:33.135Z,0.40
2023-01-11T12:02:35.323Z,0.65
2023-01-11T12:05:20.686Z,0.85
2023-01-11T12:08:06.221Z,1.42
2023-01-11T12:11:01.605Z,1.55
2023-01-11T12:14:01.163Z,3.35
2023-01-11T12:16:49.085Z,0.50
2023-01-11T12:19:42.870Z,0.50
2023-01-11T12:22:29.159Z,0.95
2023-01-11T12:25:14.473Z,0.60
2023-01-11T12:28:05.860Z,0.47
2023-01-11T12:31:22.201Z,0.35
2023-01-11T12:34:26.351Z,2.05
2023-01-11T12:37:26.933Z,1.70
2023-01-11T12:40:46.730Z,4.38
2023-01-11T12:43:38.828Z,0.80
2023-01-11T12:46:39.712Z,0.40
2023-01-11T12:49:55.761Z,0.73
2023-01-11T12:52:49.744Z,0.45
2023-01-11T12:55:50.523Z,0.50
2023-01-11T12:58:49.888Z,0.30
2023-01-11T13:01:47.553Z,4.05
2023-01-11T13:04:38.756Z,2.57
2023-01-11T13:07:47.354Z,0.60
2023-01-11T13:10:35.655Z,0.93
2023-01-11T13:13:41.066Z,0.60
2023-01-11T13:16:34.299Z,0.50
2023-01-11T13:19:28.584Z,0.63
2023-01-11T13:22:21.061Z,0.63
2023-01-11T13:25:17.496Z,0.30
2023-01-11T13:28:29.188Z,0.57
2023-01-11T13:31:16.196Z,0.60
2023-01-11T13:34:12.687Z,0.87
2023-01-11T13:37:02.964Z,1.55
2023-01-11T13:39:57.191Z,2.55
2023-01-11T13:42:48.905Z,1.30
2023-01-11T13:45:48.221Z,0.70
2023-01-11T13:48:51.465Z,0.60
2023-01-11T13:52:03.462Z,0.55
2023-01-11T13:54:58.387Z,0.40
2023-01-11T13:57:56.339Z,0.60
2023-01-11T14:03:39.232Z,1.10
2023-01-11T14:06:42.754Z,1.10
2023-01-11T14:09:53.933Z,1.40
2023-01-11T14:12:58.573Z,1.25
2023-01-11T14:15:53.338Z,0.60
2023-01-11T14:18:52.623Z,0.65
2023-01-11T14:22:05.505Z,1.05
2023-01-11T14:25:20.967Z,0.82
2023-01-11T14:28:25.170Z,0.80
2023-01-11T14:31:31.099Z,0.90
2023-01-11T14:34:40.452Z,1.98
2023-01-11T14:37:47.555Z,0.85
2023-01-11T14:41:00.976Z,1.08
2023-01-11T14:44:01.857Z,1.30
2023-01-11T14:46:56.285Z,1.67
2023-01-11T14:49:53.828Z,1.10
2023-01-11T14:52:42.102Z,1.97
2023-01-11T14:55:37.265Z,2.55
2023-01-11T14:58:31.471Z,2.58
2023-01-11T15:01:16.950Z,1.60
2023-01-11T15:04:02.258Z,3.38
2023-01-11T15:06:55.826Z,5.18
2023-01-11T15:09:47.953Z,9.60
2023-01-11T15:12:37.086Z,3.72
2023-01-11T15:15:44.462Z,2.20
2023-01-11T15:18:30.433Z,1.13
2023-01-11T15:21:21.314Z,1.42
2023-01-11T15:24:20.660Z,3.97
2023-01-11T15:27:06.709Z,0.68
2023-01-11T15:29:57.490Z,1.42
2023-01-11T15:32:43.957Z,2.08
2023-01-11T15:35:35.691Z,1.92
2023-01-11T15:38:30.599Z,1.30
2023-01-11T15:41:51.531Z,1.25
2023-01-11T15:44:49.010Z,1.50
2023-01-11T15:48:05.575Z,2.60
2023-01-11T15:51:20.331Z,1.52
2023-01-11T15:54:36.789Z,1.15
2023-01-11T15:57:50.309Z,1.70
2023-01-11T16:01:08.041Z,1.70
2023-01-11T16:04:02.465Z,1.95
2023-01-11T16:06:53.909Z,2.50
2023-01-11T16:09:58.153Z,3.72
2023-01-11T16:13:00.875Z,2.33
2023-01-11T16:16:05.651Z,2.25
2023-01-11T16:18:59.102Z,3.22
2023-01-11T16:21:49.307Z,3.53
2023-01-11T16:24:42.441Z,1.65
2023-01-11T16:27:32.294Z,2.63
2023-01-11T16:30:19.324Z,3.17
2023-01-11T16:33:28.590Z,2.70
2023-01-11T16:36:18.988Z,3.00
2023-01-11T16:39:13.333Z,1.77
2023-01-11T16:42:07.816Z,1.70
2023-01-11T16:44:59.147Z,2.45
2023-01-11T16:48:05.668Z,1.65
2023-01-11T16:51:08.966Z,2.50
2023-01-11T16:53:58.105Z,2.42
2023-01-11T16:56:50.730Z,2.95
2023-01-11T16:59:36.178Z,4.80
2023-01-11T17:02:38.017Z,2.63
2023-01-11T17:05:24.816Z,4.03
2023-01-11T17:08:34.901Z,2.20
2023-01-11T17:11:37.095Z,4.07
2023-01-11T17:14:47.618Z,5.40
2023-01-11T17:17:37.561Z,3.08
2023-01-11T17:20:31.000Z,5.47
2023-01-11T17:23:17.222Z,5.90
2023-01-11T17:26:02.842Z,2.95
2023-01-11T17:28:51.669Z,3.10
2023-01-11T17:31:39.614Z,2.55
2023-01-11T17:34:37.840Z,3.03
2023-01-11T17:40:31.804Z,2.67
2023-01-11T17:43:47.182Z,2.88
2023-01-11T17:46:32.676Z,2.38
2023-01-11T17:49:22.642Z,4.15
2023-01-11T17:52:20.087Z,2.85
2023-01-11T17:55:31.988Z,2.35
2023-01-11T17:58:28.733Z,2.30
2023-01-11T18:01:21.502Z,5.65
2023-01-11T18:04:19.240Z,3.08
2023-01-11T18:07:17.736Z,6.65
2023-01-11T18:10:03.862Z,3.10
2023-01-11T18:12:51.089Z,2.85
2023-01-11T18:15:37.577Z,3.03
2023-01-11T18:18:43.962Z,4.30
2023-01-11T18:21:31.095Z,3.78
2023-01-11T18:24:29.898Z,2.90
2023-01-11T18:27:28.240Z,2.92
2023-01-11T18:30:32.277Z,4.82
2023-01-11T18:33:20.297Z,3.20
2023-01-11T18:36:19.525Z,5.18
2023-01-11T18:39:12.312Z,3.97
2023-01-11T18:42:09.878Z,5.40
2023-01-11T18:44:56.046Z,3.28
2023-01-11T18:47:43.023Z,4.15
2023-01-11T18:50:28.544Z,5.88
2023-01-11T18:53:19.282Z,4.15
2023-01-11T18:56:05.705Z,3.63
2023-01-11T18:58:51.548Z,4.82
2023-01-11T19:01:52.590Z,5.28
2023-01-11T19:04:44.690Z,4.72
2023-01-11T19:07:30.309Z,6.05
2023-01-11T19:10:21.013Z,7.30
2023-01-11T19:13:06.569Z,4.97
2023-01-11T19:15:52.151Z,6.30
2023-01-11T19:18:37.930Z,5.85
2023-01-11T19:21:23.287Z,2.50
2023-01-11T19:24:08.831Z,3.95
2023-01-11T19:26:54.171Z,5.05
2023-01-11T19:29:40.181Z,4.38
2023-01-11T19:32:25.756Z,4.75
2023-01-11T19:35:11.474Z,4.65
2023-01-11T19:37:56.924Z,4.85
2023-01-11T19:40:42.295Z,2.95
2023-01-11T19:43:29.316Z,8.23
2023-01-11T19:46:25.822Z,3.65
2023-01-11T19:49:16.738Z,2.38
2023-01-11T19:52:03.065Z,2.67
2023-01-11T19:54:48.910Z,3.08
2023-01-11T19:57:36.134Z,1.95
2023-01-11T20:00:22.853Z,1.52
2023-01-11T20:03:09.213Z,3.30
2023-01-11T20:06:04.605Z,1.98
2023-01-11T20:08:51.300Z,9.48
2023-01-11T20:11:38.033Z,4.22
2023-01-11T20:14:23.814Z,1.75
2023-01-11T20:17:10.124Z,1.75
2023-01-11T20:19:55.589Z,1.90
2023-01-11T20:22:44.500Z,2.35
2023-01-11T20:25:29.916Z,1.95
2023-01-11T20:28:15.485Z,3.55
2023-01-11T20:31:02.222Z,4.10
2023-01-11T20:33:48.164Z,2.15
2023-01-11T20:36:33.423Z,2.30
2023-01-11T20:39:18.938Z,2.25
2023-01-11T20:42:05.217Z,2.53
2023-01-11T20:44:50.976Z,4.32
2023-01-11T20:47:36.885Z,3.00
2023-01-11T20:50:22.214Z,3.60
2023-01-11T20:53:07.510Z,1.67
2023-01-11T20:55:53.368Z,2.00
2023-01-11T20:58:38.834Z,1.98
2023-01-11T21:01:27.009Z,2.80
2023-01-11T21:04:13.677Z,2.72
2023-01-11T21:06:59.262Z,2.10
2023-01-11T21:09:44.577Z,2.47
2023-01-11T21:12:29.990Z,3.25
2023-01-11T21:15:15.752Z,2.70
2023-01-11T21:18:01.103Z,3.33
2023-01-11T21:20:48.069Z,2.65
2023-01-11T21:23:33.369Z,2.70
2023-01-11T21:26:19.695Z,1.98
2023-01-11T21:29:06.219Z,4.57
2023-01-11T21:31:51.771Z,2.03
2023-01-11T21:34:37.160Z,3.33
2023-01-11T21:37:24.664Z,2.50
2023-01-11T21:40:11.793Z,1.75
2023-01-11T21:42:57.224Z,7.03
2023-01-11T21:45:42.656Z,2.40
2023-01-11T21:48:28.069Z,4.72
2023-01-11T21:51:16.837Z,4.65
2023-01-11T21:54:10.874Z,2.95
2023-01-11T21:56:56.371Z,2.30
2023-01-11T21:59:41.634Z,1.80
2023-01-11T22:02:27.083Z,2.88
2023-01-11T22:05:12.556Z,1.33
2023-01-11T22:07:57.917Z,3.17
2023-01-11T22:10:43.376Z,2.95
2023-01-11T22:13:30.034Z,1.70
2023-01-11T22:16:17.747Z,1.90
2023-01-11T22:19:06.159Z,2.50
2023-01-11T22:21:53.812Z,2.67
2023-01-11T22:27:24.714Z,1.92
2023-01-11T22:30:10.473Z,2.30
2023-01-11T22:32:55.851Z,3.28
2023-01-11T22:35:41.245Z,7.00
2023-01-11T22:38:26.675Z,3.58
2023-01-11T22:41:12.839Z,3.20
2023-01-11T22:43:58.428Z,3.42
2023-01-11T22:46:44.397Z,3.50
2023-01-11T22:49:30.140Z,5.32
2023-01-11T22:52:15.436Z,4.20
2023-01-11T22:55:00.868Z,3.10
2023-01-11T22:57:46.100Z,8.05
2023-01-11T23:00:31.409Z,2.38
2023-01-11T23:03:16.861Z,4.40
2023-01-11T23:06:02.639Z,3.60
2023-01-11T23:08:48.280Z,2.63
2023-01-11T23:11:55.855Z,2.92
2023-01-11T23:14:41.176Z,2.53
2023-01-11T23:17:27.049Z,3.33
2023-01-11T23:20:12.918Z,2.45
2023-01-11T23:22:58.513Z,2.78
2023-01-11T23:25:44.005Z,1.55
2023-01-11T23:28:30.767Z,1.45
2023-01-11T23:31:21.923Z,5.28
2023-01-11T23:34:08.567Z,2.92
2023-01-11T23:36:54.046Z,2.45
2023-01-11T23:39:39.408Z,1.30
2023-01-11T23:42:27.634Z,2.30
2023-01-11T23:45:13.316Z,1.42
2023-01-11T23:47:58.602Z,1.35
2023-01-11T23:50:43.993Z,1.45
2023-01-11T23:53:29.579Z,1.65
2023-01-11T23:56:16.149Z,2.38
2023-01-11T23:59:02.528Z,1.83
